sensor_id;sensor_type;location;lat;lon;timestamp;P1;durP1;ratioP1;P2;durP2;ratioP2
4248;SDS011;8404;48.752;12.922;2022-10-13T00:01:06;34.67;;;32.33;;
4248;SDS011;8404;48.752;12.922;2022-10-13T00:03:35;17.23;;;15.93;;
4248;SDS011;8404;48.752;12.922;2022-10-13T00:06:04;18.35;;;16.95;;
4248;SDS011;8404;48.752;12.922;2022-10-13T00:08:35;20.58;;;18.92;;
4248;SDS011;8404;48.752;12.922;2022-10-13T00:11:07;18.38;;;16.92;;
4248;SDS011;8404;48.752;12.922;2022-10-13T00:13:37;25.55;;;23.75;;
4248;SDS011;8404;48.752;12.922;2022-10-13T00:16:05;19.85;;;17.90;;
4248;SDS011;8404;48.752;12.922;2022-10-13T00:18:34;28.20;;;26.10;;
4248;SDS011;8404;48.752;12.922;2022-10-13T00:21:05;30.10;;;27.98;;
4248;SDS011;8404;48.752;12.922;2022-10-13T00:23:35;24.48;;;22.13;;
4248;SDS011;8404;48.752;12.922;2022-10-13T00:26:05;45.95;;;42.90;;
4248;SDS011;8404;48.752;12.922;2022-10-13T00:28:34;56.35;;;52.78;;
4248;SDS011;8404;48.752;12.922;2022-10-13T00:31:03;44.03;;;41.22;;
4248;SDS011;8404;48.752;12.922;2022-10-13T00:33:40;32.58;;;30.23;;
4248;SDS011;8404;48.752;12.922;2022-10-13T00:36:08;40.83;;;38.15;;
4248;SDS011;8404;48.752;12.922;2022-10-13T00:38:38;22.13;;;20.33;;
4248;SDS011;8404;48.752;12.922;2022-10-13T00:41:06;45.47;;;42.63;;
4248;SDS011;8404;48.752;12.922;2022-10-13T00:43:49;14.55;;;13.25;;
4248;SDS011;8404;48.752;12.922;2022-10-13T00:46:23;27.92;;;26.08;;
4248;SDS011;8404;48.752;12.922;2022-10-13T00:48:57;21.23;;;19.63;;
4248;SDS011;8404;48.752;12.922;2022-10-13T00:51:27;24.70;;;22.92;;
4248;SDS011;8404;48.752;12.922;2022-10-13T00:53:59;25.15;;;23.50;;
4248;SDS011;8404;48.752;12.922;2022-10-13T00:56:30;22.02;;;20.42;;
4248;SDS011;8404;48.752;12.922;2022-10-13T00:58:59;18.45;;;17.15;;
4248;SDS011;8404;48.752;12.922;2022-10-13T01:01:29;21.92;;;20.23;;
4248;SDS011;8404;48.752;12.922;2022-10-13T01:03:57;37.53;;;35.05;;
4248;SDS011;8404;48.752;12.922;2022-10-13T01:06:27;59.10;;;55.72;;
4248;SDS011;8404;48.752;12.922;2022-10-13T01:08:56;114.53;;;108.28;;
4248;SDS011;8404;48.752;12.922;2022-10-13T01:11:39;101.10;;;95.80;;
4248;SDS011;8404;48.752;12.922;2022-10-13T01:14:20;49.55;;;46.67;;
4248;SDS011;8404;48.752;12.922;2022-10-13T01:16:57;174.60;;;164.50;;
4248;SDS011;8404;48.752;12.922;2022-10-13T01:22:32;246.80;;;231.65;;
4248;SDS011;8404;48.752;12.922;2022-10-13T01:25:15;175.95;;;165.82;;
4248;SDS011;8404;48.752;12.922;2022-10-13T01:28:06;195.93;;;184.32;;
4248;SDS011;8404;48.752;12.922;2022-10-13T01:30:53;101.78;;;95.97;;
4248;SDS011;8404;48.752;12.922;2022-10-13T01:33:28;142.23;;;133.50;;
4248;SDS011;8404;48.752;12.922;2022-10-13T01:36:04;144.88;;;136.43;;
4248;SDS011;8404;48.752;12.922;2022-10-13T01:38:42;243.05;;;227.93;;
4248;SDS011;8404;48.752;12.922;2022-10-13T01:41:16;197.63;;;185.45;;
4248;SDS011;8404;48.752;12.922;2022-10-13T01:43:47;236.70;;;221.93;;
4248;SDS011;8404;48.752;12.922;2022-10-13T01:46:21;348.02;;;326.00;;
4248;SDS011;8404;48.752;12.922;2022-10-13T01:48:52;366.30;;;343.33;;
4248;SDS011;8404;48.752;12.922;2022-10-13T01:51:22;300.10;;;281.63;;
4248;SDS011;8404;48.752;12.922;2022-10-13T01:53:53;281.40;;;263.58;;
4248;SDS011;8404;48.752;12.922;2022-10-13T01:56:28;269.48;;;252.45;;
4248;SDS011;8404;48.752;12.922;2022-10-13T01:58:56;376.13;;;352.25;;
4248;SDS011;8404;48.752;12.922;2022-10-13T02:01:35;298.67;;;280.50;;
4248;SDS011;8404;48.752;12.922;2022-10-13T02:04:19;129.93;;;122.00;;
4248;SDS011;8404;48.752;12.922;2022-10-13T02:06:57;166.27;;;156.00;;
4248;SDS011;8404;48.752;12.922;2022-10-13T02:09:32;157.65;;;147.63;;
4248;SDS011;8404;48.752;12.922;2022-10-13T02:12:08;173.02;;;162.85;;
4248;SDS011;8404;48.752;12.922;2022-10-13T02:14:43;335.98;;;314.20;;
4248;SDS011;8404;48.752;12.922;2022-10-13T02:17:14;437.48;;;409.83;;
4248;SDS011;8404;48.752;12.922;2022-10-13T02:19:43;403.98;;;378.40;;
4248;SDS011;8404;48.752;12.922;2022-10-13T02:22:12;350.67;;;328.50;;
4248;SDS011;8404;48.752;12.922;2022-10-13T02:24:43;491.70;;;460.83;;
4248;SDS011;8404;48.752;12.922;2022-10-13T02:27:11;372.17;;;348.70;;
4248;SDS011;8404;48.752;12.922;2022-10-13T02:29:49;389.20;;;365.13;;
4248;SDS011;8404;48.752;12.922;2022-10-13T02:32:20;408.30;;;381.83;;
4248;SDS011;8404;48.752;12.922;2022-10-13T02:34:50;444.13;;;415.80;;
4248;SDS011;8404;48.752;12.922;2022-10-13T02:37:18;419.70;;;394.05;;
4248;SDS011;8404;48.752;12.922;2022-10-13T02:39:46;454.73;;;426.25;;
4248;SDS011;8404;48.752;12.922;2022-10-13T02:42:15;426.83;;;400.48;;
4248;SDS011;8404;48.752;12.922;2022-10-13T02:44:44;401.23;;;376.75;;
4248;SDS011;8404;48.752;12.922;2022-10-13T02:47:12;402.25;;;377.52;;
4248;SDS011;8404;48.752;12.922;2022-10-13T02:49:41;452.70;;;425.35;;
4248;SDS011;8404;48.752;12.922;2022-10-13T02:52:10;609.53;;;572.47;;
4248;SDS011;8404;48.752;12.922;2022-10-13T02:54:41;578.90;;;543.15;;
4248;SDS011;8404;48.752;12.922;2022-10-13T02:57:09;621.88;;;583.67;;
4248;SDS011;8404;48.752;12.922;2022-10-13T02:59:37;573.40;;;540.40;;
4248;SDS011;8404;48.752;12.922;2022-10-13T03:02:05;542.78;;;510.95;;
4248;SDS011;8404;48.752;12.922;2022-10-13T03:04:33;587.15;;;550.78;;
4248;SDS011;8404;48.752;12.922;2022-10-13T03:07:02;687.08;;;648.35;;
4248;SDS011;8404;48.752;12.922;2022-10-13T03:09:31;647.38;;;611.22;;
4248;SDS011;8404;48.752;12.922;2022-10-13T03:11:59;600.05;;;562.75;;
4248;SDS011;8404;48.752;12.922;2022-10-13T03:14:28;598.90;;;561.78;;
4248;SDS011;8404;48.752;12.922;2022-10-13T03:16:56;478.35;;;449.20;;
4248;SDS011;8404;48.752;12.922;2022-10-13T03:19:24;589.03;;;552.72;;
4248;SDS011;8404;48.752;12.922;2022-10-13T03:21:52;723.28;;;679.88;;
4248;SDS011;8404;48.752;12.922;2022-10-13T03:24:21;677.22;;;636.65;;
4248;SDS011;8404;48.752;12.922;2022-10-13T03:26:49;601.80;;;567.38;;
4248;SDS011;8404;48.752;12.922;2022-10-13T03:29:18;662.20;;;622.22;;
4248;SDS011;8404;48.752;12.922;2022-10-13T03:31:47;792.30;;;745.85;;
4248;SDS011;8404;48.752;12.922;2022-10-13T03:34:16;779.67;;;733.88;;
4248;SDS011;8404;48.752;12.922;2022-10-13T03:36:45;884.17;;;833.75;;
4248;SDS011;8404;48.752;12.922;2022-10-13T03:39:13;834.25;;;785.85;;
4248;SDS011;8404;48.752;12.922;2022-10-13T03:41:43;858.58;;;809.25;;
4248;SDS011;8404;48.752;12.922;2022-10-13T03:44:11;863.75;;;817.45;;
4248;SDS011;8404;48.752;12.922;2022-10-13T03:46:40;978.70;;;924.88;;
4248;SDS011;8404;48.752;12.922;2022-10-13T03:49:08;1018.80;;;962.80;;
4248;SDS011;8404;48.752;12.922;2022-10-13T03:51:37;896.42;;;848.83;;
4248;SDS011;8404;48.752;12.922;2022-10-13T03:54:05;875.80;;;828.50;;
4248;SDS011;8404;48.752;12.922;2022-10-13T03:56:34;946.10;;;893.40;;
4248;SDS011;8404;48.752;12.922;2022-10-13T03:59:04;894.45;;;846.97;;
4248;SDS011;8404;48.752;12.922;2022-10-13T04:01:32;930.65;;;878.55;;
4248;SDS011;8404;48.752;12.922;2022-10-13T04:04:01;908.35;;;857.15;;
4248;SDS011;8404;48.752;12.922;2022-10-13T04:06:29;974.55;;;921.03;;
4248;SDS011;8404;48.752;12.922;2022-10-13T04:08:57;944.08;;;894.45;;
4248;SDS011;8404;48.752;12.922;2022-10-13T04:11:26;997.45;;;943.10;;
4248;SDS011;8404;48.752;12.922;2022-10-13T04:13:54;996.47;;;942.33;;
4248;SDS011;8404;48.752;12.922;2022-10-13T04:16:25;938.88;;;887.05;;
4248;SDS011;8404;48.752;12.922;2022-10-13T04:18:56;968.25;;;915.03;;
4248;SDS011;8404;48.752;12.922;2022-10-13T04:21:25;906.80;;;859.40;;
4248;SDS011;8404;48.752;12.922;2022-10-13T04:23:54;980.45;;;926.97;;
4248;SDS011;8404;48.752;12.922;2022-10-13T04:26:24;921.65;;;872.05;;
4248;SDS011;8404;48.752;12.922;2022-10-13T04:28:53;1013.03;;;958.13;;
4248;SDS011;8404;48.752;12.922;2022-10-13T04:31:22;969.95;;;917.83;;
4248;SDS011;8404;48.752;12.922;2022-10-13T04:33:52;987.20;;;934.28;;
4248;SDS011;8404;48.752;12.922;2022-10-13T04:36:20;1048.80;;;991.65;;
4248;SDS011;8404;48.752;12.922;2022-10-13T04:38:48;981.90;;;929.30;;
4248;SDS011;8404;48.752;12.922;2022-10-13T04:41:17;1037.97;;;981.88;;
4248;SDS011;8404;48.752;12.922;2022-10-13T04:43:46;1045.38;;;989.05;;
4248;SDS011;8404;48.752;12.922;2022-10-13T04:46:15;985.97;;;932.83;;
4248;SDS011;8404;48.752;12.922;2022-10-13T04:48:47;1006.75;;;952.42;;
4248;SDS011;8404;48.752;12.922;2022-10-13T04:51:20;1064.20;;;999.90;;
4248;SDS011;8404;48.752;12.922;2022-10-13T04:53:53;994.17;;;940.92;;
4248;SDS011;8404;48.752;12.922;2022-10-13T04:56:22;1053.65;;;996.97;;
4248;SDS011;8404;48.752;12.922;2022-10-13T04:58:51;1059.38;;;999.80;;
4248;SDS011;8404;48.752;12.922;2022-10-13T05:01:20;1000.65;;;946.47;;
4248;SDS011;8404;48.752;12.922;2022-10-13T05:03:49;1009.15;;;954.60;;
4248;SDS011;8404;48.752;12.922;2022-10-13T05:06:21;997.90;;;943.78;;
4248;SDS011;8404;48.752;12.922;2022-10-13T05:08:54;1004.35;;;950.08;;
4248;SDS011;8404;48.752;12.922;2022-10-13T05:11:23;1000.30;;;946.90;;
4248;SDS011;8404;48.752;12.922;2022-10-13T05:13:52;990.08;;;936.42;;
4248;SDS011;8404;48.752;12.922;2022-10-13T05:16:20;995.58;;;941.97;;
4248;SDS011;8404;48.752;12.922;2022-10-13T05:18:49;998.60;;;945.38;;
4248;SDS011;8404;48.752;12.922;2022-10-13T05:21:22;1062.05;;;999.90;;
4248;SDS011;8404;48.752;12.922;2022-10-13T05:23:52;992.25;;;938.70;;
4248;SDS011;8404;48.752;12.922;2022-10-13T05:26:21;1040.95;;;984.80;;
4248;SDS011;8404;48.752;12.922;2022-10-13T05:28:53;981.53;;;928.75;;
4248;SDS011;8404;48.752;12.922;2022-10-13T05:31:24;1039.75;;;983.00;;
4248;SDS011;8404;48.752;12.922;2022-10-13T05:33:54;974.05;;;920.92;;
4248;SDS011;8404;48.752;12.922;2022-10-13T05:36:25;1014.05;;;959.22;;
4248;SDS011;8404;48.752;12.922;2022-10-13T05:38:57;993.22;;;939.30;;
4248;SDS011;8404;48.752;12.922;2022-10-13T05:41:26;1046.72;;;990.38;;
4248;SDS011;8404;48.752;12.922;2022-10-13T05:43:56;1047.85;;;991.33;;
4248;SDS011;8404;48.752;12.922;2022-10-13T05:46:25;1050.72;;;993.97;;
4248;SDS011;8404;48.752;12.922;2022-10-13T05:48:53;986.88;;;933.42;;
4248;SDS011;8404;48.752;12.922;2022-10-13T05:51:23;1018.05;;;963.10;;
4248;SDS011;8404;48.752;12.922;2022-10-13T05:53:57;922.00;;;873.15;;
4248;SDS011;8404;48.752;12.922;2022-10-13T05:56:29;882.60;;;835.92;;
4248;SDS011;8404;48.752;12.922;2022-10-13T05:59:00;950.10;;;897.85;;
4248;SDS011;8404;48.752;12.922;2022-10-13T06:01:32;845.17;;;797.20;;
4248;SDS011;8404;48.752;12.922;2022-10-13T06:04:04;797.45;;;754.25;;
4248;SDS011;8404;48.752;12.922;2022-10-13T06:06:36;877.63;;;828.70;;
4248;SDS011;8404;48.752;12.922;2022-10-13T06:09:05;848.70;;;802.53;;
4248;SDS011;8404;48.752;12.922;2022-10-13T06:11:33;889.10;;;839.58;;
4248;SDS011;8404;48.752;12.922;2022-10-13T06:14:04;946.05;;;893.97;;
4248;SDS011;8404;48.752;12.922;2022-10-13T06:16:33;847.05;;;802.10;;
4248;SDS011;8404;48.752;12.922;2022-10-13T06:19:02;801.53;;;755.63;;
4248;SDS011;8404;48.752;12.922;2022-10-13T06:21:30;779.08;;;734.38;;
4248;SDS011;8404;48.752;12.922;2022-10-13T06:24:03;542.00;;;509.25;;
4248;SDS011;8404;48.752;12.922;2022-10-13T06:26:31;484.15;;;454.33;;
4248;SDS011;8404;48.752;12.922;2022-10-13T06:29:00;416.38;;;390.08;;
4248;SDS011;8404;48.752;12.922;2022-10-13T06:31:28;489.45;;;458.10;;
4248;SDS011;8404;48.752;12.922;2022-10-13T06:33:56;424.08;;;397.35;;
4248;SDS011;8404;48.752;12.922;2022-10-13T06:36:25;417.02;;;390.15;;
4248;SDS011;8404;48.752;12.922;2022-10-13T06:38:53;334.63;;;313.27;;
4248;SDS011;8404;48.752;12.922;2022-10-13T06:41:23;32.70;;;30.15;;
4248;SDS011;8404;48.752;12.922;2022-10-13T06:43:51;76.00;;;71.13;;
4248;SDS011;8404;48.752;12.922;2022-10-13T06:46:20;75.93;;;71.05;;
4248;SDS011;8404;48.752;12.922;2022-10-13T06:48:48;59.95;;;56.20;;
4248;SDS011;8404;48.752;12.922;2022-10-13T06:51:18;71.88;;;67.45;;
4248;SDS011;8404;48.752;12.922;2022-10-13T06:53:47;86.15;;;80.93;;
4248;SDS011;8404;48.752;12.922;2022-10-13T06:56:20;82.05;;;76.95;;
4248;SDS011;8404;48.752;12.922;2022-10-13T06:58:49;69.70;;;65.28;;
4248;SDS011;8404;48.752;12.922;2022-10-13T07:01:18;72.50;;;68.05;;
4248;SDS011;8404;48.752;12.922;2022-10-13T07:03:47;86.88;;;81.57;;
4248;SDS011;8404;48.752;12.922;2022-10-13T07:06:18;87.35;;;82.30;;
4248;SDS011;8404;48.752;12.922;2022-10-13T07:08:49;63.00;;;58.55;;
4248;SDS011;8404;48.752;12.922;2022-10-13T07:11:18;116.65;;;109.93;;
4248;SDS011;8404;48.752;12.922;2022-10-13T07:13:52;72.97;;;68.40;;
4248;SDS011;8404;48.752;12.922;2022-10-13T07:16:20;145.60;;;136.77;;
4248;SDS011;8404;48.752;12.922;2022-10-13T07:18:48;120.50;;;113.57;;
4248;SDS011;8404;48.752;12.922;2022-10-13T07:21:17;110.15;;;103.93;;
4248;SDS011;8404;48.752;12.922;2022-10-13T07:23:45;101.47;;;95.57;;
4248;SDS011;8404;48.752;12.922;2022-10-13T07:26:15;95.32;;;89.53;;
4248;SDS011;8404;48.752;12.922;2022-10-13T07:28:43;100.78;;;95.05;;
4248;SDS011;8404;48.752;12.922;2022-10-13T07:31:13;88.90;;;83.50;;
4248;SDS011;8404;48.752;12.922;2022-10-13T07:33:44;97.20;;;91.38;;
4248;SDS011;8404;48.752;12.922;2022-10-13T07:36:15;101.85;;;95.68;;
4248;SDS011;8404;48.752;12.922;2022-10-13T07:38:44;93.95;;;88.25;;
4248;SDS011;8404;48.752;12.922;2022-10-13T07:41:12;94.45;;;88.80;;
4248;SDS011;8404;48.752;12.922;2022-10-13T07:43:41;86.70;;;81.40;;
4248;SDS011;8404;48.752;12.922;2022-10-13T07:46:09;87.40;;;82.00;;
4248;SDS011;8404;48.752;12.922;2022-10-13T07:48:40;109.20;;;102.20;;
4248;SDS011;8404;48.752;12.922;2022-10-13T07:51:09;105.90;;;99.72;;
4248;SDS011;8404;48.752;12.922;2022-10-13T07:53:38;98.82;;;92.88;;
4248;SDS011;8404;48.752;12.922;2022-10-13T07:56:08;85.07;;;79.75;;
4248;SDS011;8404;48.752;12.922;2022-10-13T07:58:38;96.07;;;90.32;;
4248;SDS011;8404;48.752;12.922;2022-10-13T08:01:07;81.80;;;76.82;;
4248;SDS011;8404;48.752;12.922;2022-10-13T08:03:40;83.95;;;78.82;;
4248;SDS011;8404;48.752;12.922;2022-10-13T08:06:16;86.10;;;80.50;;
4248;SDS011;8404;48.752;12.922;2022-10-13T08:08:45;71.25;;;66.78;;
4248;SDS011;8404;48.752;12.922;2022-10-13T08:11:15;84.95;;;79.60;;
4248;SDS011;8404;48.752;12.922;2022-10-13T08:13:47;73.35;;;68.82;;
4248;SDS011;8404;48.752;12.922;2022-10-13T08:16:19;67.05;;;63.17;;
4248;SDS011;8404;48.752;12.922;2022-10-13T08:18:49;38.63;;;36.03;;
4248;SDS011;8404;48.752;12.922;2022-10-13T08:21:19;43.85;;;40.70;;
4248;SDS011;8404;48.752;12.922;2022-10-13T08:24:08;51.55;;;48.30;;
4248;SDS011;8404;48.752;12.922;2022-10-13T08:26:39;42.75;;;40.00;;
4248;SDS011;8404;48.752;12.922;2022-10-13T08:29:08;48.38;;;45.28;;
4248;SDS011;8404;48.752;12.922;2022-10-13T08:31:52;50.92;;;47.88;;
4248;SDS011;8404;48.752;12.922;2022-10-13T08:34:22;46.33;;;43.15;;
4248;SDS011;8404;48.752;12.922;2022-10-13T08:36:51;49.20;;;46.00;;
4248;SDS011;8404;48.752;12.922;2022-10-13T08:39:22;64.25;;;60.30;;
4248;SDS011;8404;48.752;12.922;2022-10-13T08:41:51;55.35;;;51.97;;
4248;SDS011;8404;48.752;12.922;2022-10-13T08:44:21;46.63;;;43.65;;
4248;SDS011;8404;48.752;12.922;2022-10-13T08:47:14;104.60;;;98.57;;
4248;SDS011;8404;48.752;12.922;2022-10-13T08:49:52;120.13;;;112.88;;
4248;SDS011;8404;48.752;12.922;2022-10-13T08:52:27;206.05;;;194.15;;
4248;SDS011;8404;48.752;12.922;2022-10-13T08:55:09;193.55;;;182.18;;
4248;SDS011;8404;48.752;12.922;2022-10-13T08:57:42;227.88;;;214.32;;
4248;SDS011;8404;48.752;12.922;2022-10-13T09:00:11;189.65;;;177.85;;
4248;SDS011;8404;48.752;12.922;2022-10-13T09:02:42;208.35;;;196.13;;
4248;SDS011;8404;48.752;12.922;2022-10-13T09:05:15;210.80;;;198.05;;
4248;SDS011;8404;48.752;12.922;2022-10-13T09:07:55;243.77;;;229.35;;
4248;SDS011;8404;48.752;12.922;2022-10-13T09:10:25;149.30;;;140.40;;
4248;SDS011;8404;48.752;12.922;2022-10-13T09:12:53;198.05;;;186.32;;
4248;SDS011;8404;48.752;12.922;2022-10-13T09:15:24;199.68;;;188.02;;
4248;SDS011;8404;48.752;12.922;2022-10-13T09:18:06;176.63;;;166.73;;
4248;SDS011;8404;48.752;12.922;2022-10-13T09:20:37;170.98;;;160.77;;
4248;SDS011;8404;48.752;12.922;2022-10-13T09:23:08;188.63;;;177.15;;
4248;SDS011;8404;48.752;12.922;2022-10-13T09:25:45;162.43;;;153.23;;
4248;SDS011;8404;48.752;12.922;2022-10-13T09:28:15;239.68;;;225.32;;
4248;SDS011;8404;48.752;12.922;2022-10-13T09:30:47;195.63;;;183.48;;
4248;SDS011;8404;48.752;12.922;2022-10-13T09:33:24;165.80;;;156.00;;
4248;SDS011;8404;48.752;12.922;2022-10-13T09:36:07;164.35;;;154.57;;
4248;SDS011;8404;48.752;12.922;2022-10-13T09:38:40;222.10;;;208.93;;
4248;SDS011;8404;48.752;12.922;2022-10-13T09:41:18;180.82;;;169.98;;
4248;SDS011;8404;48.752;12.922;2022-10-13T09:43:58;197.18;;;186.00;;
4248;SDS011;8404;48.752;12.922;2022-10-13T09:46:34;183.45;;;172.77;;
4248;SDS011;8404;48.752;12.922;2022-10-13T09:49:06;197.45;;;185.63;;
4248;SDS011;8404;48.752;12.922;2022-10-13T09:51:56;167.52;;;158.05;;
4248;SDS011;8404;48.752;12.922;2022-10-13T09:54:31;170.60;;;160.43;;
4248;SDS011;8404;48.752;12.922;2022-10-13T09:57:06;201.38;;;189.23;;
4248;SDS011;8404;48.752;12.922;2022-10-13T09:59:44;160.05;;;150.77;;
4248;SDS011;8404;48.752;12.922;2022-10-13T10:02:21;145.60;;;136.70;;
4248;SDS011;8404;48.752;12.922;2022-10-13T10:04:55;211.32;;;199.10;;
4248;SDS011;8404;48.752;12.922;2022-10-13T10:07:29;229.57;;;215.90;;
4248;SDS011;8404;48.752;12.922;2022-10-13T10:09:59;217.55;;;204.80;;
4248;SDS011;8404;48.752;12.922;2022-10-13T10:12:31;227.18;;;214.00;;
4248;SDS011;8404;48.752;12.922;2022-10-13T10:15:05;233.80;;;220.00;;
4248;SDS011;8404;48.752;12.922;2022-10-13T10:17:47;238.88;;;224.95;;
4248;SDS011;8404;48.752;12.922;2022-10-13T10:20:28;291.25;;;274.75;;
4248;SDS011;8404;48.752;12.922;2022-10-13T10:23:21;260.77;;;245.82;;
4248;SDS011;8404;48.752;12.922;2022-10-13T10:26:00;355.95;;;335.50;;
4248;SDS011;8404;48.752;12.922;2022-10-13T10:28:44;333.77;;;314.45;;
4248;SDS011;8404;48.752;12.922;2022-10-13T10:31:29;354.17;;;333.65;;
4248;SDS011;8404;48.752;12.922;2022-10-13T10:34:09;274.30;;;258.48;;
4248;SDS011;8404;48.752;12.922;2022-10-13T10:37:08;312.52;;;294.90;;
4248;SDS011;8404;48.752;12.922;2022-10-13T10:39:48;316.52;;;298.75;;
4248;SDS011;8404;48.752;12.922;2022-10-13T10:42:38;369.35;;;348.50;;
4248;SDS011;8404;48.752;12.922;2022-10-13T10:45:19;396.90;;;373.83;;
4248;SDS011;8404;48.752;12.922;2022-10-13T10:47:52;321.20;;;303.20;;
4248;SDS011;8404;48.752;12.922;2022-10-13T10:50:25;274.08;;;258.40;;
4248;SDS011;8404;48.752;12.922;2022-10-13T10:52:58;316.33;;;297.73;;
4248;SDS011;8404;48.752;12.922;2022-10-13T10:55:32;285.00;;;268.65;;
4248;SDS011;8404;48.752;12.922;2022-10-13T10:58:12;303.67;;;286.20;;
4248;SDS011;8404;48.752;12.922;2022-10-13T11:00:51;346.65;;;326.48;;
4248;SDS011;8404;48.752;12.922;2022-10-13T11:03:30;298.05;;;281.35;;
4248;SDS011;8404;48.752;12.922;2022-10-13T11:06:20;363.30;;;342.65;;
4248;SDS011;8404;48.752;12.922;2022-10-13T11:08:49;427.88;;;405.13;;
4248;SDS011;8404;48.752;12.922;2022-10-13T11:11:36;543.42;;;514.22;;
4248;SDS011;8404;48.752;12.922;2022-10-13T11:14:22;608.08;;;576.45;;
4248;SDS011;8404;48.752;12.922;2022-10-13T11:19:55;654.65;;;622.35;;
4248;SDS011;8404;48.752;12.922;2022-10-13T11:22:24;650.42;;;619.28;;
4248;SDS011;8404;48.752;12.922;2022-10-13T11:24:56;695.28;;;662.03;;
4248;SDS011;8404;48.752;12.922;2022-10-13T11:27:40;847.58;;;806.97;;
4248;SDS011;8404;48.752;12.922;2022-10-13T11:33:31;724.40;;;688.80;;
4248;SDS011;8404;48.752;12.922;2022-10-13T11:38:57;663.60;;;632.03;;
4248;SDS011;8404;48.752;12.922;2022-10-13T11:41:38;826.97;;;787.92;;
4248;SDS011;8404;48.752;12.922;2022-10-13T11:44:16;797.88;;;758.90;;
4248;SDS011;8404;48.752;12.922;2022-10-13T11:46:59;726.58;;;689.83;;
4248;SDS011;8404;48.752;12.922;2022-10-13T11:49:41;843.83;;;802.97;;
4248;SDS011;8404;48.752;12.922;2022-10-13T11:52:26;807.00;;;770.47;;
4248;SDS011;8404;48.752;12.922;2022-10-13T11:55:31;822.88;;;783.80;;
4248;SDS011;8404;48.752;12.922;2022-10-13T11:58:11;859.53;;;817.85;;
4248;SDS011;8404;48.752;12.922;2022-10-13T12:00:53;866.42;;;823.15;;
4248;SDS011;8404;48.752;12.922;2022-10-13T12:03:25;811.25;;;774.13;;
4248;SDS011;8404;48.752;12.922;2022-10-13T12:05:56;797.60;;;760.33;;
4248;SDS011;8404;48.752;12.922;2022-10-13T12:08:27;542.85;;;512.17;;
4248;SDS011;8404;48.752;12.922;2022-10-13T12:10:59;489.98;;;463.83;;
4248;SDS011;8404;48.752;12.922;2022-10-13T12:13:30;372.27;;;350.75;;
4248;SDS011;8404;48.752;12.922;2022-10-13T12:16:01;363.30;;;342.60;;
4248;SDS011;8404;48.752;12.922;2022-10-13T12:18:32;407.08;;;383.20;;
4248;SDS011;8404;48.752;12.922;2022-10-13T12:21:07;264.83;;;249.82;;
4248;SDS011;8404;48.752;12.922;2022-10-13T12:23:38;223.13;;;210.60;;
4248;SDS011;8404;48.752;12.922;2022-10-13T12:26:11;182.98;;;172.45;;
4248;SDS011;8404;48.752;12.922;2022-10-13T12:28:44;225.80;;;213.00;;
4248;SDS011;8404;48.752;12.922;2022-10-13T12:31:18;263.85;;;248.73;;
4248;SDS011;8404;48.752;12.922;2022-10-13T12:33:51;210.38;;;198.48;;
4248;SDS011;8404;48.752;12.922;2022-10-13T12:36:23;326.13;;;307.35;;
4248;SDS011;8404;48.752;12.922;2022-10-13T12:38:57;262.13;;;246.98;;
4248;SDS011;8404;48.752;12.922;2022-10-13T12:41:28;287.50;;;271.38;;
4248;SDS011;8404;48.752;12.922;2022-10-13T12:43:58;309.33;;;292.20;;
4248;SDS011;8404;48.752;12.922;2022-10-13T12:46:40;331.48;;;312.45;;
4248;SDS011;8404;48.752;12.922;2022-10-13T12:49:12;257.02;;;242.70;;
4248;SDS011;8404;48.752;12.922;2022-10-13T12:51:42;330.85;;;312.30;;
4248;SDS011;8404;48.752;12.922;2022-10-13T12:54:17;350.38;;;331.02;;
4248;SDS011;8404;48.752;12.922;2022-10-13T12:56:47;436.45;;;412.20;;
4248;SDS011;8404;48.752;12.922;2022-10-13T12:59:21;456.50;;;432.60;;
4248;SDS011;8404;48.752;12.922;2022-10-13T13:01:52;457.98;;;433.95;;
4248;SDS011;8404;48.752;12.922;2022-10-13T13:06:57;420.60;;;395.90;;
4248;SDS011;8404;48.752;12.922;2022-10-13T13:09:27;297.00;;;279.85;;
4248;SDS011;8404;48.752;12.922;2022-10-13T13:12:04;309.13;;;291.70;;
4248;SDS011;8404;48.752;12.922;2022-10-13T13:14:44;295.40;;;278.58;;
4248;SDS011;8404;48.752;12.922;2022-10-13T13:17:21;303.40;;;285.35;;
4248;SDS011;8404;48.752;12.922;2022-10-13T13:20:18;224.35;;;211.80;;
4248;SDS011;8404;48.752;12.922;2022-10-13T13:22:48;312.58;;;294.40;;
4248;SDS011;8404;48.752;12.922;2022-10-13T13:25:17;172.13;;;162.38;;
4248;SDS011;8404;48.752;12.922;2022-10-13T13:27:45;186.23;;;175.90;;
4248;SDS011;8404;48.752;12.922;2022-10-13T13:30:15;339.30;;;319.25;;
4248;SDS011;8404;48.752;12.922;2022-10-13T13:32:48;254.52;;;239.77;;
4248;SDS011;8404;48.752;12.922;2022-10-13T13:35:17;335.42;;;315.80;;
4248;SDS011;8404;48.752;12.922;2022-10-13T13:37:45;303.90;;;286.42;;
4248;SDS011;8404;48.752;12.922;2022-10-13T13:40:16;320.08;;;302.20;;
4248;SDS011;8404;48.752;12.922;2022-10-13T13:42:47;298.15;;;281.52;;
4248;SDS011;8404;48.752;12.922;2022-10-13T13:45:15;364.80;;;344.40;;
4248;SDS011;8404;48.752;12.922;2022-10-13T13:47:45;377.77;;;356.33;;
4248;SDS011;8404;48.752;12.922;2022-10-13T13:50:18;310.40;;;293.23;;
4248;SDS011;8404;48.752;12.922;2022-10-13T13:52:54;381.60;;;359.58;;
4248;SDS011;8404;48.752;12.922;2022-10-13T13:55:22;363.85;;;344.02;;
4248;SDS011;8404;48.752;12.922;2022-10-13T13:57:51;340.02;;;320.73;;
4248;SDS011;8404;48.752;12.922;2022-10-13T14:00:19;360.90;;;340.38;;
4248;SDS011;8404;48.752;12.922;2022-10-13T14:02:53;367.63;;;346.77;;
4248;SDS011;8404;48.752;12.922;2022-10-13T14:05:23;304.30;;;287.20;;
4248;SDS011;8404;48.752;12.922;2022-10-13T14:07:52;271.38;;;256.38;;
4248;SDS011;8404;48.752;12.922;2022-10-13T14:10:22;388.50;;;366.23;;
4248;SDS011;8404;48.752;12.922;2022-10-13T14:12:51;366.75;;;345.50;;
4248;SDS011;8404;48.752;12.922;2022-10-13T14:15:19;343.48;;;323.48;;
4248;SDS011;8404;48.752;12.922;2022-10-13T14:17:54;481.27;;;446.23;;
4248;SDS011;8404;48.752;12.922;2022-10-13T14:20:23;350.38;;;329.67;;
4248;SDS011;8404;48.752;12.922;2022-10-13T14:22:51;322.27;;;304.33;;
4248;SDS011;8404;48.752;12.922;2022-10-13T14:25:20;358.63;;;337.92;;
4248;SDS011;8404;48.752;12.922;2022-10-13T14:27:48;351.63;;;332.50;;
4248;SDS011;8404;48.752;12.922;2022-10-13T14:30:16;265.42;;;250.23;;
4248;SDS011;8404;48.752;12.922;2022-10-13T14:32:44;287.30;;;270.67;;
4248;SDS011;8404;48.752;12.922;2022-10-13T14:35:12;319.75;;;301.10;;
4248;SDS011;8404;48.752;12.922;2022-10-13T14:37:42;306.13;;;287.98;;
4248;SDS011;8404;48.752;12.922;2022-10-13T14:40:10;290.85;;;273.88;;
4248;SDS011;8404;48.752;12.922;2022-10-13T14:42:38;311.30;;;293.60;;
4248;SDS011;8404;48.752;12.922;2022-10-13T14:45:12;402.73;;;380.60;;
4248;SDS011;8404;48.752;12.922;2022-10-13T14:47:41;270.25;;;255.15;;
4248;SDS011;8404;48.752;12.922;2022-10-13T14:50:09;350.63;;;330.00;;
4248;SDS011;8404;48.752;12.922;2022-10-13T14:52:37;367.10;;;346.75;;
4248;SDS011;8404;48.752;12.922;2022-10-13T14:55:07;351.80;;;331.77;;
4248;SDS011;8404;48.752;12.922;2022-10-13T14:57:37;260.67;;;245.70;;